createdAt,value
2023-04-02T00:00:00.144Z,9.00
2023-04-02T00:04:03.765Z,8.97
2023-04-02T00:08:00.344Z,9.07
2023-04-02T00:11:56.542Z,8.94
2023-04-02T00:15:50.715Z,8.93
2023-04-02T00:20:00.969Z,8.84
2023-04-02T00:24:19.009Z,8.81
2023-04-02T00:28:15.760Z,8.72
2023-04-02T00:32:17.602Z,8.77
2023-04-02T00:36:10.445Z,8.97
2023-04-02T00:40:07.408Z,8.94
2023-04-02T00:44:03.897Z,8.83
2023-04-02T00:48:21.247Z,8.81
2023-04-02T00:52:18.640Z,9.10
2023-04-02T00:56:20.198Z,9.14
2023-04-02T01:00:18.733Z,9.04
2023-04-02T01:04:28.393Z,8.99
2023-04-02T01:08:31.876Z,9.08
2023-04-02T01:12:25.441Z,9.20
2023-04-02T01:16:29.562Z,9.16
2023-04-02T01:20:47.631Z,9.31
2023-04-02T01:25:06.856Z,9.21
2023-04-02T01:37:37.112Z,9.21
2023-04-02T01:41:34.343Z,9.37
2023-04-02T01:45:27.237Z,9.31
2023-04-02T01:49:22.220Z,9.51
2023-04-02T01:53:16.258Z,9.46
2023-04-02T01:57:08.863Z,9.48
2023-04-02T02:01:04.016Z,9.30
2023-04-02T02:04:56.408Z,9.42
2023-04-02T02:08:52.076Z,9.45
2023-04-02T02:12:44.979Z,9.27
2023-04-02T02:16:42.180Z,9.37
2023-04-02T02:20:35.451Z,9.51
2023-04-02T02:24:33.126Z,9.44
2023-04-02T02:32:43.918Z,9.55
2023-04-02T02:36:47.322Z,9.52
2023-04-02T02:54:11.253Z,9.44
2023-04-02T02:58:06.916Z,9.31
2023-04-02T03:02:00.718Z,9.39
2023-04-02T03:05:54.202Z,9.42
2023-04-02T03:09:59.058Z,9.46
2023-04-02T03:13:54.625Z,9.46
2023-04-02T03:17:53.209Z,9.35
2023-04-02T03:21:54.538Z,9.35
2023-04-02T03:25:50.583Z,9.16
2023-04-02T03:29:46.504Z,9.21
2023-04-02T03:38:28.326Z,8.97
2023-04-02T03:42:27.783Z,9.00
2023-04-02T03:46:23.984Z,9.01
2023-04-02T03:50:25.950Z,9.03
2023-04-02T03:54:18.632Z,9.04
2023-04-02T03:58:20.941Z,8.76
2023-04-02T04:02:39.822Z,8.76
2023-04-02T04:06:36.924Z,8.73
2023-04-02T04:10:30.460Z,8.66
2023-04-02T04:14:31.578Z,8.58
2023-04-02T04:18:42.621Z,8.56
2023-04-02T04:22:35.240Z,8.55
2023-04-02T04:26:42.999Z,8.38
2023-04-02T04:30:44.612Z,8.35
2023-04-02T04:34:46.749Z,8.24
2023-04-02T04:38:40.956Z,8.10
2023-04-02T04:42:38.888Z,8.20
2023-04-02T04:46:34.486Z,8.27
2023-04-02T04:50:46.113Z,8.45
2023-04-02T04:54:39.619Z,8.52
2023-04-02T04:58:33.971Z,8.62
2023-04-02T05:02:28.943Z,8.75
2023-04-02T05:06:32.743Z,8.75
2023-04-02T05:10:31.097Z,9.63
2023-04-02T05:14:40.629Z,9.75
2023-04-02T05:18:36.683Z,10.85
2023-04-02T05:22:47.379Z,12.67
2023-04-02T05:26:42.343Z,13.48
2023-04-02T05:30:38.598Z,14.18
2023-04-02T05:34:39.537Z,14.47
2023-04-02T05:38:36.826Z,14.96
2023-04-02T05:42:31.454Z,15.19
2023-04-02T05:46:30.794Z,15.35
2023-04-02T05:50:30.744Z,15.31
2023-04-02T05:54:26.277Z,16.18
2023-04-02T06:02:20.266Z,16.38
2023-04-02T06:06:15.778Z,16.11
2023-04-02T06:10:12.126Z,17.08
2023-04-02T06:14:04.888Z,17.28
2023-04-02T06:18:08.576Z,18.22
2023-04-02T06:22:09.072Z,17.39
2023-04-02T06:26:03.814Z,15.96
2023-04-02T06:29:59.361Z,15.83
2023-04-02T06:33:54.957Z,15.47
2023-04-02T06:37:48.237Z,14.94
2023-04-02T06:41:40.785Z,14.46
2023-04-02T06:45:35.322Z,14.36
2023-04-02T06:49:40.250Z,14.30
2023-04-02T06:53:37.475Z,14.08
2023-04-02T06:57:32.921Z,14.05
2023-04-02T07:01:31.110Z,14.01
2023-04-02T07:05:23.942Z,14.19
2023-04-02T07:09:16.376Z,15.08
2023-04-02T07:13:16.757Z,16.32
2023-04-02T07:17:14.453Z,17.01
2023-04-02T07:21:06.879Z,17.11
2023-04-02T07:24:59.203Z,17.77
2023-04-02T07:28:51.555Z,18.25
2023-04-02T07:32:44.285Z,18.69
2023-04-02T07:36:36.720Z,17.93
2023-04-02T07:40:29.484Z,17.07
2023-04-02T07:44:22.072Z,16.53
2023-04-02T07:48:15.034Z,15.96
2023-04-02T07:52:07.596Z,15.69
2023-04-02T07:56:01.513Z,15.60
2023-04-02T07:59:56.641Z,15.42
2023-04-02T08:03:50.397Z,15.21
2023-04-02T08:07:43.601Z,15.23
2023-04-02T08:11:35.942Z,15.33
2023-04-02T08:15:28.216Z,15.23
2023-04-02T08:19:20.528Z,15.11
2023-04-02T08:23:17.234Z,14.88
2023-04-02T08:27:12.416Z,14.99
2023-04-02T08:31:04.974Z,14.85
2023-04-02T08:34:57.469Z,14.95
2023-04-02T08:38:49.729Z,15.05
2023-04-02T08:42:50.713Z,15.06
2023-04-02T08:46:59.613Z,14.83
2023-04-02T08:50:52.422Z,14.76
2023-04-02T08:54:45.101Z,14.70
2023-04-02T08:58:41.663Z,14.92
2023-04-02T09:02:43.365Z,15.06
2023-04-02T09:06:35.956Z,15.09
2023-04-02T09:10:40.007Z,15.05
2023-04-02T09:14:48.712Z,14.95
2023-04-02T09:18:41.638Z,14.95
2023-04-02T09:22:35.273Z,15.08
2023-04-02T09:26:29.672Z,15.35
2023-04-02T09:30:42.423Z,15.57
2023-04-02T09:34:36.592Z,15.57
2023-04-02T09:38:31.682Z,15.77
2023-04-02T09:42:31.999Z,15.86
2023-04-02T09:46:25.296Z,15.74
2023-04-02T09:50:26.930Z,15.84
2023-04-02T09:54:19.381Z,15.91
2023-04-02T09:58:13.068Z,15.91
2023-04-02T10:02:22.201Z,15.96
2023-04-02T10:06:16.018Z,16.15
2023-04-02T10:10:19.626Z,16.19
2023-04-02T10:14:32.264Z,16.25
2023-04-02T10:18:27.546Z,16.19
2023-04-02T10:22:20.999Z,16.33
2023-04-02T10:26:25.391Z,16.63
2023-04-02T10:30:20.851Z,16.73
2023-04-02T10:34:19.890Z,16.67
2023-04-02T10:38:18.457Z,16.46
2023-04-02T10:42:17.861Z,16.25
2023-04-02T10:46:18.889Z,16.33
2023-04-02T10:50:32.556Z,16.35
2023-04-02T10:54:24.806Z,16.21
2023-04-02T10:58:24.394Z,16.18
2023-04-02T11:02:37.526Z,16.17
2023-04-02T11:06:37.518Z,16.01
2023-04-02T11:10:31.377Z,15.86
2023-04-02T11:14:31.535Z,15.66
2023-04-02T11:18:28.740Z,15.36
2023-04-02T11:22:22.382Z,15.15
2023-04-02T11:26:33.506Z,15.25
2023-04-02T11:30:27.246Z,15.36
2023-04-02T11:34:38.439Z,15.44
2023-04-02T11:38:46.561Z,15.71
2023-04-02T11:42:42.723Z,15.84
2023-04-02T11:46:41.758Z,16.08
2023-04-02T11:50:37.530Z,16.12
2023-04-02T11:54:38.089Z,15.87
2023-04-02T11:58:43.039Z,15.91
2023-04-02T12:02:41.928Z,16.19
2023-04-02T12:06:34.388Z,16.28
2023-04-02T12:10:34.593Z,16.14
2023-04-02T12:14:30.189Z,16.25
2023-04-02T12:18:23.917Z,16.39
2023-04-02T12:22:22.080Z,16.63
2023-04-02T12:26:37.384Z,16.91
2023-04-02T12:30:29.837Z,16.87
2023-04-02T12:34:23.494Z,17.00
2023-04-02T12:38:23.265Z,17.06
2023-04-02T12:42:29.184Z,17.03
2023-04-02T12:46:23.886Z,16.99
2023-04-02T12:50:17.321Z,16.91
2023-04-02T12:54:13.276Z,16.70
2023-04-02T12:58:24.763Z,16.55
2023-04-02T13:02:21.915Z,16.62
2023-04-02T13:06:24.375Z,16.59
2023-04-02T13:10:27.732Z,16.55
2023-04-02T13:14:21.305Z,16.41
2023-04-02T13:18:13.501Z,16.32
2023-04-02T13:22:25.912Z,16.30
2023-04-02T13:26:28.720Z,16.49
2023-04-02T13:30:22.723Z,16.76
2023-04-02T13:34:15.148Z,16.91
2023-04-02T13:38:08.722Z,16.67
2023-04-02T13:42:02.699Z,16.41
2023-04-02T13:45:56.460Z,16.04
2023-04-02T13:49:49.155Z,15.80
2023-04-02T13:53:42.279Z,15.54
2023-04-02T13:57:35.554Z,15.47
2023-04-02T14:01:28.615Z,15.67
2023-04-02T14:05:21.231Z,15.91
2023-04-02T14:09:32.603Z,16.00
2023-04-02T14:13:31.601Z,15.90
2023-04-02T14:17:24.349Z,15.74
2023-04-02T14:21:26.977Z,15.73
2023-04-02T14:25:23.081Z,15.67
2023-04-02T14:29:29.225Z,15.79
2023-04-02T14:33:45.114Z,15.86
2023-04-02T14:37:42.216Z,15.80
2023-04-02T14:41:44.155Z,15.93
2023-04-02T14:45:37.326Z,16.07
2023-04-02T14:49:40.782Z,16.12
2023-04-02T14:53:47.898Z,16.25
2023-04-02T14:57:49.121Z,16.32
2023-04-02T15:01:43.612Z,16.26
2023-04-02T15:05:55.439Z,16.01
2023-04-02T15:09:51.569Z,15.96
2023-04-02T15:13:52.431Z,15.94
2023-04-02T15:17:44.820Z,15.87
2023-04-02T15:21:58.939Z,15.76
2023-04-02T15:26:17.664Z,15.67
2023-04-02T15:30:19.076Z,15.50
2023-04-02T15:34:31.132Z,15.40
2023-04-02T15:38:26.948Z,15.23
2023-04-02T15:42:25.688Z,15.09
2023-04-02T15:46:44.687Z,15.01
2023-04-02T15:50:57.430Z,14.81
2023-04-02T15:55:10.909Z,14.63
2023-04-02T15:59:09.402Z,14.46
2023-04-02T16:03:21.368Z,14.16
2023-04-02T16:07:36.802Z,14.12
2023-04-02T16:11:29.496Z,14.05
2023-04-02T16:15:33.098Z,13.97
2023-04-02T16:19:44.656Z,13.92
2023-04-02T16:23:37.941Z,13.74
2023-04-02T16:27:30.614Z,13.56
2023-04-02T16:31:26.557Z,13.47
2023-04-02T16:35:41.224Z,13.20
2023-04-02T16:39:35.963Z,13.02
2023-04-02T16:43:35.241Z,12.85
2023-04-02T16:47:31.436Z,12.69
2023-04-02T16:51:27.814Z,12.57
2023-04-02T16:55:24.565Z,12.51
2023-04-02T16:59:27.140Z,12.32
2023-04-02T17:03:20.264Z,12.09
2023-04-02T17:07:31.620Z,11.75
2023-04-02T17:11:25.755Z,11.68
2023-04-02T17:15:28.275Z,11.42
2023-04-02T17:19:24.959Z,11.40
2023-04-02T17:23:19.927Z,11.17
2023-04-02T17:27:18.056Z,11.09
2023-04-02T17:31:15.105Z,10.95
2023-04-02T17:35:27.148Z,10.72
2023-04-02T17:39:23.358Z,10.75
2023-04-02T17:43:27.036Z,10.68
2023-04-02T17:47:41.852Z,10.52
2023-04-02T17:52:01.289Z,10.22
2023-04-02T17:56:06.510Z,10.34
2023-04-02T18:00:08.106Z,10.16
2023-04-02T18:04:16.682Z,10.09
2023-04-02T18:08:12.592Z,10.16
2023-04-02T18:12:11.623Z,9.94
2023-04-02T18:16:04.703Z,10.00
2023-04-02T18:20:04.048Z,9.89
2023-04-02T18:24:12.173Z,9.85
2023-04-02T18:28:12.941Z,9.71
2023-04-02T18:32:20.259Z,9.52
2023-04-02T18:36:28.575Z,9.54
2023-04-02T18:40:33.780Z,9.42
2023-04-02T18:49:06.939Z,9.42
2023-04-02T18:53:03.451Z,9.17
2023-04-02T18:56:56.582Z,9.28
2023-04-02T19:00:50.856Z,8.65
2023-04-02T19:04:47.494Z,8.86
2023-04-02T19:08:49.954Z,8.90
2023-04-02T19:12:44.701Z,8.97
2023-04-02T19:16:56.569Z,9.11
2023-04-02T19:20:54.218Z,8.91
2023-04-02T19:25:05.612Z,8.84
2023-04-02T19:29:12.922Z,8.86
2023-04-02T19:33:21.252Z,8.96
2023-04-02T19:37:37.525Z,8.77
2023-04-02T19:41:42.520Z,8.99
2023-04-02T19:45:39.820Z,9.00
2023-04-02T19:49:34.526Z,8.79
2023-04-02T19:53:27.459Z,8.84
2023-04-02T19:57:20.351Z,8.80
2023-04-02T20:01:13.762Z,8.70
2023-04-02T20:05:07.328Z,8.86
2023-04-02T20:09:00.425Z,8.52
2023-04-02T20:12:53.571Z,8.58
2023-04-02T20:16:46.881Z,8.48
2023-04-02T20:20:40.711Z,8.20
2023-04-02T20:24:33.836Z,8.38
2023-04-02T20:28:27.682Z,8.28
2023-04-02T20:32:20.698Z,8.38
2023-04-02T20:36:17.062Z,8.15
2023-04-02T20:40:10.656Z,8.11
2023-04-02T20:44:03.416Z,8.08
2023-04-02T20:47:55.916Z,7.94
2023-04-02T20:56:35.290Z,7.90
2023-04-02T21:00:28.051Z,7.76
2023-04-02T21:04:20.688Z,7.77
2023-04-02T21:08:13.497Z,7.91
2023-04-02T21:12:06.113Z,7.70
2023-04-02T21:15:59.044Z,7.47
2023-04-02T21:19:51.507Z,7.70
2023-04-02T21:23:45.059Z,7.66
2023-04-02T21:27:37.430Z,7.58
2023-04-02T21:31:31.089Z,7.69
2023-04-02T21:35:23.534Z,7.70
2023-04-02T21:39:23.277Z,7.58
2023-04-02T21:43:15.909Z,7.38
2023-04-02T21:47:08.323Z,7.38
2023-04-02T21:51:27.313Z,7.25
2023-04-02T21:55:21.166Z,7.38
2023-04-02T21:59:14.546Z,7.54
2023-04-02T22:03:07.200Z,7.65
2023-04-02T22:07:00.495Z,7.31
2023-04-02T22:10:52.943Z,7.36
2023-04-02T22:14:45.267Z,7.63
2023-04-02T22:18:38.237Z,7.34
2023-04-02T22:22:30.785Z,7.47
2023-04-02T22:26:23.650Z,7.45
2023-04-02T22:30:16.400Z,7.42
2023-04-02T22:34:08.783Z,7.45
2023-04-02T22:38:01.183Z,7.35
2023-04-02T22:41:53.582Z,7.32
2023-04-02T22:45:47.747Z,7.21
2023-04-02T22:49:40.032Z,7.47
2023-04-02T22:53:32.459Z,7.51
2023-04-02T22:57:24.751Z,7.07
2023-04-02T23:01:27.260Z,7.21
2023-04-02T23:05:20.233Z,7.24
2023-04-02T23:09:12.628Z,6.90
2023-04-02T23:13:04.961Z,7.14
2023-04-02T23:16:57.512Z,7.45
2023-04-02T23:20:49.948Z,7.48
2023-04-02T23:24:42.341Z,7.47
2023-04-02T23:28:35.146Z,7.73
2023-04-02T23:32:27.947Z,7.69
2023-04-02T23:36:20.390Z,7.70
2023-04-02T23:40:12.723Z,7.52
2023-04-02T23:44:05.903Z,7.58
2023-04-02T23:47:58.345Z,7.63
2023-04-02T23:51:51.284Z,7.44
2023-04-02T23:55:43.634Z,7.52
2023-04-02T23:59:35.950Z,7.31
